createdAt,value
2022-10-11T00:01:54.377Z,11.30
2022-10-11T00:04:37.626Z,9.32
2022-10-11T00:07:28.220Z,13.85
2022-10-11T00:10:14.627Z,7.75
2022-10-11T00:13:06.371Z,10.18
2022-10-11T00:15:50.571Z,7.32
2022-10-11T00:18:33.545Z,7.35
2022-10-11T00:21:17.752Z,9.82
2022-10-11T00:24:02.116Z,8.65
2022-10-11T00:26:47.198Z,7.15
2022-10-11T00:29:31.917Z,5.30
2022-10-11T00:32:15.856Z,8.15
2022-10-11T00:35:04.676Z,8.52
2022-10-11T00:37:48.294Z,9.50
2022-10-11T00:40:31.899Z,5.18
2022-10-11T00:43:17.863Z,8.50
2022-10-11T00:46:08.986Z,6.13
2022-10-11T00:48:57.643Z,8.10
2022-10-11T00:51:48.662Z,9.07
2022-10-11T00:54:37.344Z,8.32
2022-10-11T00:57:21.394Z,13.65
2022-10-11T01:00:09.580Z,8.07
2022-10-11T01:02:54.851Z,6.78
2022-10-11T01:05:41.014Z,9.90
2022-10-11T01:08:24.756Z,12.68
2022-10-11T01:11:13.487Z,7.85
2022-10-11T01:14:14.854Z,7.28
2022-10-11T01:17:04.757Z,7.78
2022-10-11T01:20:08.535Z,12.95
2022-10-11T01:23:19.564Z,13.00
2022-10-11T01:26:29.898Z,10.30
2022-10-11T01:29:22.303Z,6.57
2022-10-11T01:32:12.299Z,6.70
2022-10-11T01:35:03.392Z,9.50
2022-10-11T01:37:53.091Z,11.77
2022-10-11T01:40:41.329Z,8.65
2022-10-11T01:43:25.308Z,8.82
2022-10-11T01:46:09.657Z,8.50
2022-10-11T01:48:57.261Z,8.70
2022-10-11T01:51:47.328Z,15.30
2022-10-11T01:55:08.574Z,11.18
2022-10-11T01:58:15.294Z,5.72
2022-10-11T02:01:09.843Z,8.55
2022-10-11T02:04:03.279Z,7.60
2022-10-11T02:06:57.060Z,7.78
2022-10-11T02:09:46.627Z,9.23
2022-10-11T02:12:35.434Z,15.18
2022-10-11T02:15:20.368Z,8.20
2022-10-11T02:18:08.135Z,9.45
2022-10-11T02:20:53.147Z,9.73
2022-10-11T02:23:41.495Z,7.45
2022-10-11T02:26:29.608Z,8.75
2022-10-11T02:29:18.993Z,11.48
2022-10-11T02:32:02.183Z,14.90
2022-10-11T02:34:51.110Z,10.48
2022-10-11T02:37:46.958Z,9.25
2022-10-11T02:40:34.152Z,12.05
2022-10-11T02:43:26.359Z,6.90
2022-10-11T02:46:12.864Z,8.80
2022-10-11T02:48:59.007Z,11.52
2022-10-11T02:51:43.415Z,14.60
2022-10-11T02:54:28.877Z,11.40
2022-10-11T02:57:13.135Z,8.52
2022-10-11T02:59:57.572Z,9.20
2022-10-11T03:02:48.858Z,12.80
2022-10-11T03:05:37.229Z,16.20
2022-10-11T03:08:30.462Z,11.18
2022-10-11T03:11:14.163Z,11.98
2022-10-11T03:13:57.843Z,8.98
2022-10-11T03:16:44.821Z,7.18
2022-10-11T03:20:05.821Z,15.50
2022-10-11T03:22:49.422Z,23.52
2022-10-11T03:25:33.042Z,19.25
2022-10-11T03:28:17.003Z,12.02
2022-10-11T03:31:02.004Z,15.77
2022-10-11T03:33:52.694Z,15.38
2022-10-11T03:36:37.225Z,12.50
2022-10-11T03:39:20.999Z,20.08
2022-10-11T03:42:05.474Z,20.27
2022-10-11T03:44:49.651Z,14.65
2022-10-11T03:47:34.022Z,9.88
2022-10-11T03:50:18.644Z,7.97
2022-10-11T03:53:03.518Z,10.45
2022-10-11T03:55:46.948Z,10.07
2022-10-11T03:58:29.775Z,8.88
2022-10-11T04:01:15.989Z,9.38
2022-10-11T04:04:02.009Z,13.30
2022-10-11T04:06:53.751Z,11.27
2022-10-11T04:09:39.505Z,13.57
2022-10-11T04:12:25.427Z,10.32
2022-10-11T04:15:09.377Z,13.18
2022-10-11T04:17:54.222Z,9.13
2022-10-11T04:20:38.068Z,7.63
2022-10-11T04:23:25.515Z,13.60
2022-10-11T04:26:10.673Z,10.98
2022-10-11T04:29:00.683Z,8.40
2022-10-11T04:31:45.262Z,12.07
2022-10-11T04:34:27.564Z,10.10
2022-10-11T04:37:11.254Z,9.20
2022-10-11T04:39:55.915Z,8.65
2022-10-11T04:42:45.527Z,14.48
2022-10-11T04:45:30.114Z,9.95
2022-10-11T04:48:20.973Z,15.10
2022-10-11T04:51:12.250Z,8.70
2022-10-11T04:53:54.941Z,25.27
2022-10-11T04:56:41.485Z,23.48
2022-10-11T04:59:25.735Z,34.22
2022-10-11T05:02:08.930Z,25.50
2022-10-11T05:04:55.246Z,19.17
2022-10-11T05:07:47.130Z,23.08
2022-10-11T05:10:41.812Z,9.65
2022-10-11T05:13:25.873Z,13.50
2022-10-11T05:16:11.063Z,12.70
2022-10-11T05:18:55.510Z,11.15
2022-10-11T05:21:40.314Z,9.63
2022-10-11T05:24:22.289Z,8.38
2022-10-11T05:27:05.172Z,14.35
2022-10-11T05:29:46.652Z,12.32
2022-10-11T05:32:29.082Z,9.57
2022-10-11T05:35:12.496Z,11.20
2022-10-11T05:37:55.541Z,11.50
2022-10-11T05:40:39.725Z,8.82
2022-10-11T05:43:24.136Z,9.95
2022-10-11T05:46:08.979Z,16.10
2022-10-11T05:49:02.006Z,9.23
2022-10-11T05:51:45.923Z,8.82
2022-10-11T05:54:32.429Z,8.95
2022-10-11T05:57:17.207Z,11.90
2022-10-11T06:00:09.069Z,8.52
2022-10-11T06:02:58.694Z,29.45
2022-10-11T06:05:43.389Z,11.38
2022-10-11T06:08:34.987Z,11.02
2022-10-11T06:11:28.476Z,9.57
2022-10-11T06:14:26.180Z,11.93
2022-10-11T06:17:34.424Z,7.60
2022-10-11T06:20:39.601Z,8.07
2022-10-11T06:24:01.170Z,7.20
2022-10-11T06:26:58.721Z,11.88
2022-10-11T06:30:03.523Z,10.65
2022-10-11T06:33:06.805Z,15.68
2022-10-11T06:35:49.561Z,7.90
2022-10-11T06:38:47.769Z,24.00
2022-10-11T06:41:54.526Z,11.57
2022-10-11T06:44:37.555Z,13.63
2022-10-11T06:47:34.764Z,12.57
2022-10-11T06:50:29.944Z,12.68
2022-10-11T06:53:43.239Z,9.43
2022-10-11T06:56:47.248Z,7.97
2022-10-11T06:59:31.389Z,9.27
2022-10-11T07:02:35.466Z,13.32
2022-10-11T07:05:36.108Z,13.70
2022-10-11T07:08:38.342Z,12.88
2022-10-11T07:11:41.485Z,11.55
2022-10-11T07:14:42.577Z,12.55
2022-10-11T07:17:40.035Z,12.05
2022-10-11T07:20:42.300Z,8.52
2022-10-11T07:23:26.173Z,12.20
2022-10-11T07:26:20.480Z,10.55
2022-10-11T07:29:35.349Z,9.02
2022-10-11T07:32:32.878Z,8.88
2022-10-11T07:35:46.011Z,12.60
2022-10-11T07:38:52.678Z,14.52
2022-10-11T07:41:55.616Z,17.10
2022-10-11T07:45:02.025Z,13.27
2022-10-11T07:48:03.285Z,14.23
2022-10-11T07:51:07.466Z,15.77
2022-10-11T07:54:08.542Z,11.50
2022-10-11T07:57:07.185Z,12.32
2022-10-11T08:00:07.283Z,11.68
2022-10-11T08:03:18.419Z,10.65
2022-10-11T08:06:02.831Z,14.93
2022-10-11T08:09:09.447Z,12.90
2022-10-11T08:12:07.163Z,12.80
2022-10-11T08:14:49.243Z,11.93
2022-10-11T08:17:49.260Z,11.95
2022-10-11T08:20:53.859Z,11.32
2022-10-11T08:23:53.833Z,11.27
2022-10-11T08:26:53.636Z,9.15
2022-10-11T08:29:54.134Z,8.25
2022-10-11T08:32:50.965Z,9.48
2022-10-11T08:36:08.658Z,11.65
2022-10-11T08:39:07.487Z,13.57
2022-10-11T08:42:16.729Z,10.57
2022-10-11T08:45:36.756Z,10.10
2022-10-11T08:48:39.307Z,12.35
2022-10-11T08:51:46.591Z,15.85
2022-10-11T08:54:53.085Z,18.27
2022-10-11T08:57:54.133Z,12.75
2022-10-11T09:01:02.519Z,16.95
2022-10-11T09:03:49.831Z,11.68
2022-10-11T09:06:45.041Z,15.52
2022-10-11T09:09:50.929Z,6.30
2022-10-11T09:12:48.670Z,15.07
2022-10-11T09:15:41.446Z,13.32
2022-10-11T09:18:46.927Z,11.07
2022-10-11T09:21:29.402Z,12.85
2022-10-11T09:24:14.858Z,12.05
2022-10-11T09:26:53.018Z,11.45
2022-10-11T09:29:33.204Z,11.40
2022-10-11T09:32:04.218Z,11.07
2022-10-11T09:34:35.402Z,11.57
2022-10-11T09:37:13.869Z,10.85
2022-10-11T09:39:51.928Z,10.73
2022-10-11T09:42:20.841Z,11.40
2022-10-11T09:44:51.259Z,12.23
2022-10-11T09:47:23.845Z,14.50
2022-10-11T09:49:58.567Z,9.73
2022-10-11T09:52:27.862Z,16.20
2022-10-11T09:54:59.154Z,8.68
2022-10-11T09:57:30.024Z,12.13
2022-10-11T10:00:02.051Z,10.48
2022-10-11T10:02:43.428Z,9.57
2022-10-11T10:05:19.987Z,9.55
2022-10-11T10:08:08.214Z,9.65
2022-10-11T10:10:40.483Z,11.18
2022-10-11T10:13:22.857Z,11.48
2022-10-11T10:15:54.807Z,11.15
2022-10-11T10:18:28.529Z,11.32
2022-10-11T10:21:00.613Z,7.78
2022-10-11T10:23:32.957Z,27.60
2022-10-11T10:26:17.136Z,9.73
2022-10-11T10:29:02.372Z,12.63
2022-10-11T10:31:49.570Z,18.52
2022-10-11T10:34:30.665Z,9.93
2022-10-11T10:37:05.194Z,9.77
2022-10-11T10:39:40.762Z,6.17
2022-10-11T10:42:15.628Z,11.57
2022-10-11T10:44:47.544Z,7.55
2022-10-11T10:47:23.198Z,8.75
2022-10-11T10:49:59.339Z,6.10
2022-10-11T10:52:56.235Z,10.13
2022-10-11T10:55:30.235Z,10.05
2022-10-11T10:58:15.087Z,8.45
2022-10-11T11:00:49.883Z,9.77
2022-10-11T11:03:25.341Z,8.57
2022-10-11T11:06:03.553Z,8.05
2022-10-11T11:08:58.660Z,8.50
2022-10-11T11:11:43.394Z,11.82
2022-10-11T11:14:28.837Z,10.68
2022-10-11T11:17:03.278Z,11.35
2022-10-11T11:19:43.960Z,11.67
2022-10-11T11:22:27.091Z,9.20
2022-10-11T11:25:09.988Z,28.50
2022-10-11T11:27:48.929Z,8.95
2022-10-11T11:30:21.847Z,15.30
2022-10-11T11:32:58.032Z,10.35
2022-10-11T11:35:33.372Z,7.38
2022-10-11T11:38:06.608Z,10.75
2022-10-11T11:40:40.727Z,8.95
2022-10-11T11:43:20.599Z,9.82
2022-10-11T11:45:53.808Z,11.65
2022-10-11T11:48:25.688Z,11.82
2022-10-11T11:51:02.466Z,12.70
2022-10-11T11:53:47.453Z,10.13
2022-10-11T11:56:28.791Z,9.30
2022-10-11T11:59:04.322Z,9.85
2022-10-11T12:01:42.327Z,9.77
2022-10-11T12:04:16.914Z,10.70
2022-10-11T12:07:11.135Z,22.25
2022-10-11T12:09:36.718Z,11.95
2022-10-11T12:12:09.392Z,22.40
2022-10-11T12:14:40.897Z,10.07
2022-10-11T12:17:19.230Z,12.48
2022-10-11T12:20:14.664Z,12.98
2022-10-11T12:22:58.182Z,16.95
2022-10-11T12:25:37.807Z,10.63
2022-10-11T12:28:40.064Z,13.60
2022-10-11T12:31:22.773Z,13.13
2022-10-11T12:34:17.882Z,10.05
2022-10-11T12:36:47.838Z,18.90
2022-10-11T12:39:50.755Z,9.90
2022-10-11T12:42:39.151Z,14.35
2022-10-11T12:45:32.555Z,15.15
2022-10-11T12:48:35.936Z,11.88
2022-10-11T12:51:23.883Z,15.85
2022-10-11T12:54:46.783Z,14.15
2022-10-11T12:57:35.281Z,12.57
2022-10-11T13:00:18.634Z,10.48
2022-10-11T13:02:49.135Z,11.68
2022-10-11T13:05:24.377Z,10.27
2022-10-11T13:10:29.584Z,14.18
2022-10-11T13:13:04.361Z,14.00
2022-10-11T13:15:33.560Z,22.10
2022-10-11T13:18:03.686Z,9.05
2022-10-11T13:20:38.957Z,12.18
2022-10-11T13:23:23.063Z,13.02
2022-10-11T13:25:52.599Z,14.38
2022-10-11T13:28:22.084Z,11.45
2022-10-11T13:30:54.095Z,10.68
2022-10-11T13:33:32.063Z,12.73
2022-10-11T13:36:04.645Z,20.02
2022-10-11T13:38:36.526Z,20.52
2022-10-11T13:41:08.282Z,11.98
2022-10-11T13:43:37.878Z,10.60
2022-10-11T13:46:08.223Z,11.02
2022-10-11T13:48:41.224Z,15.95
2022-10-11T13:51:30.543Z,12.90
2022-10-11T13:54:02.035Z,14.90
2022-10-11T13:56:33.784Z,11.07
2022-10-11T13:59:03.385Z,12.13
2022-10-11T14:01:39.443Z,8.57
2022-10-11T14:04:10.777Z,10.55
2022-10-11T14:06:43.967Z,13.70
2022-10-11T14:09:22.065Z,14.75
2022-10-11T14:11:51.311Z,14.95
2022-10-11T14:14:41.096Z,11.73
2022-10-11T14:17:16.533Z,20.63
2022-10-11T14:19:46.551Z,13.63
2022-10-11T14:22:19.198Z,18.75
2022-10-11T14:24:49.113Z,16.27
2022-10-11T14:27:22.418Z,11.00
2022-10-11T14:30:12.629Z,20.33
2022-10-11T14:32:42.312Z,16.52
2022-10-11T14:35:17.882Z,18.88
2022-10-11T14:37:48.348Z,12.15
2022-10-11T14:40:19.856Z,13.27
2022-10-11T14:42:48.723Z,13.43
2022-10-11T14:45:18.097Z,14.38
2022-10-11T14:47:46.963Z,15.15
2022-10-11T14:50:33.838Z,20.75
2022-10-11T14:53:04.158Z,11.38
2022-10-11T14:55:33.287Z,63.38
2022-10-11T14:58:02.238Z,22.40
2022-10-11T15:00:31.716Z,8.85
2022-10-11T15:03:00.988Z,13.43
2022-10-11T15:05:33.901Z,16.63
2022-10-11T15:08:05.549Z,12.30
2022-10-11T15:10:37.529Z,13.98
2022-10-11T15:13:07.902Z,11.70
2022-10-11T15:15:40.725Z,11.35
2022-10-11T15:18:13.823Z,11.60
2022-10-11T15:20:45.049Z,14.50
2022-10-11T15:23:15.399Z,18.20
2022-10-11T15:25:44.351Z,11.80
2022-10-11T15:28:23.349Z,13.00
2022-10-11T15:30:52.421Z,20.10
2022-10-11T15:33:21.340Z,9.80
2022-10-11T15:35:50.133Z,12.77
2022-10-11T15:38:24.042Z,13.43
2022-10-11T15:40:53.706Z,13.70
2022-10-11T15:43:24.993Z,11.05
2022-10-11T15:45:54.613Z,9.85
2022-10-11T15:48:26.290Z,10.50
2022-10-11T15:50:55.871Z,14.93
2022-10-11T15:53:30.021Z,10.90
2022-10-11T15:56:02.254Z,12.20
2022-10-11T15:58:33.046Z,19.13
2022-10-11T16:01:06.486Z,15.13
2022-10-11T16:03:35.979Z,11.43
2022-10-11T16:06:05.916Z,20.67
2022-10-11T16:08:36.354Z,13.50
2022-10-11T16:11:06.710Z,17.48
2022-10-11T16:13:36.887Z,12.35
2022-10-11T16:16:07.839Z,11.80
2022-10-11T16:18:37.109Z,10.00
2022-10-11T16:21:09.014Z,17.92
2022-10-11T16:23:40.472Z,11.07
2022-10-11T16:26:12.427Z,13.80
2022-10-11T16:28:42.041Z,19.48
2022-10-11T16:31:14.400Z,17.60
2022-10-11T16:33:46.622Z,17.77
2022-10-11T16:36:37.013Z,15.25
2022-10-11T16:39:09.762Z,22.30
2022-10-11T16:41:38.839Z,26.40
2022-10-11T16:44:08.660Z,21.88
2022-10-11T16:46:37.477Z,19.73
2022-10-11T16:49:06.550Z,25.52
2022-10-11T16:51:35.516Z,17.25
2022-10-11T16:54:04.528Z,12.60
2022-10-11T16:56:39.571Z,18.45
2022-10-11T16:59:09.121Z,11.63
2022-10-11T17:01:38.728Z,13.70
2022-10-11T17:04:07.968Z,13.70
2022-10-11T17:06:36.886Z,15.07
2022-10-11T17:09:05.986Z,12.63
2022-10-11T17:11:36.447Z,13.55
2022-10-11T17:14:07.184Z,14.25
2022-10-11T17:16:36.720Z,12.60
2022-10-11T17:19:06.094Z,13.27
2022-10-11T17:21:34.924Z,17.92
2022-10-11T17:24:03.852Z,15.55
2022-10-11T17:26:33.343Z,13.07
2022-10-11T17:29:04.386Z,12.85
2022-10-11T17:31:33.239Z,14.20
2022-10-11T17:34:02.343Z,15.95
2022-10-11T17:36:34.660Z,15.57
2022-10-11T17:39:06.613Z,11.95
2022-10-11T17:41:35.875Z,26.92
2022-10-11T17:44:06.631Z,15.95
2022-10-11T17:46:35.812Z,14.00
2022-10-11T17:49:06.634Z,21.02
2022-10-11T17:51:36.801Z,17.13
2022-10-11T17:54:06.299Z,17.33
2022-10-11T17:56:38.014Z,15.98
2022-10-11T17:59:09.569Z,22.20
2022-10-11T18:01:38.439Z,16.45
2022-10-11T18:04:07.801Z,13.50
2022-10-11T18:06:41.239Z,20.40
2022-10-11T18:09:10.110Z,27.08
2022-10-11T18:11:39.160Z,18.80
2022-10-11T18:14:09.801Z,13.90
2022-10-11T18:16:39.922Z,21.70
2022-10-11T18:19:12.440Z,20.42
2022-10-11T18:21:42.296Z,13.95
2022-10-11T18:24:15.094Z,10.55
2022-10-11T18:26:44.727Z,15.68
2022-10-11T18:29:15.059Z,15.05
2022-10-11T18:31:44.002Z,12.60
2022-10-11T18:34:15.793Z,9.32
2022-10-11T18:36:44.865Z,14.35
2022-10-11T18:39:15.737Z,26.67
2022-10-11T18:41:45.028Z,18.65
2022-10-11T18:44:16.714Z,15.38
2022-10-11T18:46:46.294Z,22.33
2022-10-11T18:49:15.735Z,26.23
2022-10-11T18:51:46.321Z,18.73
2022-10-11T18:54:20.021Z,17.15
2022-10-11T18:56:50.453Z,24.48
2022-10-11T18:59:21.170Z,18.02
2022-10-11T19:01:52.423Z,21.08
2022-10-11T19:04:21.773Z,40.28
2022-10-11T19:06:50.787Z,36.60
2022-10-11T19:09:22.533Z,27.92
2022-10-11T19:11:52.921Z,29.58
2022-10-11T19:14:26.591Z,35.65
2022-10-11T19:16:56.520Z,35.63
2022-10-11T19:19:28.112Z,36.78
2022-10-11T19:21:57.007Z,31.33
2022-10-11T19:24:27.647Z,20.35
2022-10-11T19:27:01.365Z,20.05
2022-10-11T19:29:34.423Z,28.50
2022-10-11T19:32:04.183Z,28.42
2022-10-11T19:34:33.142Z,27.85
2022-10-11T19:37:03.403Z,16.05
2022-10-11T19:39:32.468Z,17.15
2022-10-11T19:42:02.020Z,20.23
2022-10-11T19:44:35.728Z,14.55
2022-10-11T19:47:07.621Z,23.50
2022-10-11T19:49:36.410Z,20.95
2022-10-11T19:52:05.302Z,19.63
2022-10-11T19:54:34.136Z,17.80
2022-10-11T19:57:03.274Z,17.27
2022-10-11T19:59:33.538Z,20.48
2022-10-11T20:02:02.335Z,16.52
2022-10-11T20:04:51.525Z,20.35
2022-10-11T20:07:19.969Z,20.35
2022-10-11T20:09:48.972Z,34.08
2022-10-11T20:12:17.791Z,30.65
2022-10-11T20:14:48.211Z,34.88
2022-10-11T20:17:17.045Z,36.75
2022-10-11T20:19:45.882Z,33.92
2022-10-11T20:22:14.741Z,37.90
2022-10-11T20:24:43.599Z,25.33
2022-10-11T20:27:12.543Z,20.83
2022-10-11T20:29:41.473Z,18.55
2022-10-11T20:32:11.880Z,24.25
2022-10-11T20:34:40.707Z,21.60
2022-10-11T20:37:09.542Z,21.25
2022-10-11T20:39:38.639Z,23.23
2022-10-11T20:42:07.475Z,18.05
2022-10-11T20:44:36.304Z,25.45
2022-10-11T20:47:05.175Z,24.17
2022-10-11T20:49:35.487Z,23.63
2022-10-11T20:52:04.309Z,20.90
2022-10-11T20:54:34.789Z,22.05
2022-10-11T20:57:03.755Z,23.55
2022-10-11T20:59:32.601Z,22.20
2022-10-11T21:02:02.030Z,19.02
2022-10-11T21:04:31.244Z,22.83
2022-10-11T21:07:02.087Z,26.50
2022-10-11T21:09:30.894Z,27.77
2022-10-11T21:12:01.405Z,17.60
2022-10-11T21:14:30.332Z,24.65
2022-10-11T21:16:59.273Z,21.08
2022-10-11T21:19:28.111Z,27.60
2022-10-11T21:21:57.657Z,24.40
2022-10-11T21:24:27.846Z,21.42
2022-10-11T21:27:00.436Z,28.45
2022-10-11T21:29:29.766Z,21.98
2022-10-11T21:31:58.688Z,21.73
2022-10-11T21:34:27.512Z,31.55
2022-10-11T21:36:56.362Z,17.55
2022-10-11T21:39:25.286Z,34.33
2022-10-11T21:41:55.545Z,20.02
2022-10-11T21:44:24.367Z,27.92
2022-10-11T21:47:08.701Z,21.67
2022-10-11T21:49:37.799Z,19.02
2022-10-11T21:52:06.801Z,23.35
2022-10-11T21:54:35.638Z,14.32
2022-10-11T21:57:06.356Z,19.63
2022-10-11T21:59:35.190Z,19.92
2022-10-11T22:02:04.063Z,20.60
2022-10-11T22:04:32.962Z,19.05
2022-10-11T22:07:02.036Z,20.40
2022-10-11T22:09:34.949Z,20.98
2022-10-11T22:12:05.633Z,22.52
2022-10-11T22:14:34.476Z,19.45
2022-10-11T22:17:04.008Z,19.02
2022-10-11T22:19:32.837Z,27.58
2022-10-11T22:22:01.995Z,18.40
2022-10-11T22:24:31.113Z,18.02
2022-10-11T22:26:59.950Z,19.77
2022-10-11T22:29:34.226Z,16.27
2022-10-11T22:32:03.353Z,13.40
2022-10-11T22:34:33.068Z,16.67
2022-10-11T22:37:02.050Z,16.98
2022-10-11T22:39:30.992Z,16.60
2022-10-11T22:41:59.894Z,19.05
2022-10-11T22:44:30.144Z,21.90
2022-10-11T22:46:58.974Z,18.40
2022-10-11T22:49:27.804Z,18.85
2022-10-11T22:51:56.696Z,20.88
2022-10-11T22:54:25.585Z,19.05
2022-10-11T22:56:54.472Z,19.35
2022-10-11T22:59:23.304Z,20.05
2022-10-11T23:01:53.588Z,19.05
2022-10-11T23:04:22.504Z,21.88
2022-10-11T23:06:51.452Z,13.90
2022-10-11T23:09:20.264Z,26.50
2022-10-11T23:11:49.118Z,20.20
2022-10-11T23:14:17.983Z,18.33
2022-10-11T23:16:46.809Z,25.92
2022-10-11T23:19:17.133Z,22.60
2022-10-11T23:21:45.968Z,19.38
2022-10-11T23:24:15.004Z,22.92
2022-10-11T23:26:43.795Z,24.58
2022-10-11T23:29:12.621Z,17.90
2022-10-11T23:31:41.511Z,15.20
2022-10-11T23:34:10.371Z,19.75
2022-10-11T23:36:40.586Z,14.40
2022-10-11T23:39:11.752Z,14.77
2022-10-11T23:41:40.580Z,16.85
2022-10-11T23:44:09.698Z,15.32
2022-10-11T23:46:38.550Z,11.70
2022-10-11T23:49:07.513Z,20.15
2022-10-11T23:51:36.457Z,15.57
2022-10-11T23:54:07.027Z,15.10
2022-10-11T23:56:35.865Z,17.52
2022-10-11T23:59:05.215Z,17.75
